createdAt,value
2023-03-22T00:03:09.009Z,6.00
2023-03-22T00:17:08.491Z,5.60
2023-03-22T00:31:08.573Z,5.20
2023-03-22T00:45:08.578Z,5.00
2023-03-22T00:59:08.591Z,5.10
2023-03-22T01:13:08.595Z,5.00
2023-03-22T01:27:08.603Z,5.10
2023-03-22T01:41:08.609Z,4.40
2023-03-22T01:55:08.612Z,4.30
2023-03-22T02:09:08.635Z,4.40
2023-03-22T02:23:08.666Z,4.50
2023-03-22T02:37:08.667Z,4.20
2023-03-22T02:51:08.682Z,3.90
2023-03-22T03:05:09.426Z,3.70
2023-03-22T03:19:08.724Z,3.90
2023-03-22T03:33:08.754Z,3.70
2023-03-22T03:47:08.749Z,3.90
2023-03-22T04:01:08.757Z,3.80
2023-03-22T04:15:08.773Z,3.60
2023-03-22T04:29:08.771Z,3.60
2023-03-22T04:43:08.790Z,3.50
2023-03-22T04:57:08.794Z,3.95
2023-03-22T05:12:08.857Z,3.80
2023-03-22T05:27:08.882Z,3.60
2023-03-22T05:42:08.874Z,3.40
2023-03-22T05:58:08.923Z,3.20
2023-03-22T06:13:09.154Z,3.30
2023-03-22T06:28:08.970Z,3.30
2023-03-22T06:43:08.943Z,3.60
2023-03-22T06:58:09.053Z,3.25
2023-03-22T07:13:09.073Z,3.40
2023-03-22T07:28:09.068Z,2.90
2023-03-22T07:43:08.990Z,2.60
2023-03-22T07:58:09.016Z,2.80
2023-03-22T08:13:09.009Z,3.10
2023-03-22T08:28:09.131Z,3.30
2023-03-22T08:43:09.034Z,4.20
2023-03-22T08:58:09.175Z,4.35
2023-03-22T09:13:09.162Z,4.40
2023-03-22T09:28:10.252Z,4.70
2023-03-22T09:43:09.177Z,5.30
2023-03-22T09:58:09.197Z,5.50
2023-03-22T10:14:09.277Z,5.80
2023-03-22T10:29:09.339Z,5.80
2023-03-22T10:44:09.262Z,5.60
2023-03-22T10:59:10.323Z,5.40
2023-03-22T11:14:10.455Z,5.30
2023-03-22T11:29:09.346Z,5.40
2023-03-22T11:44:09.379Z,5.00
2023-03-22T11:59:09.378Z,5.60
2023-03-22T12:14:09.387Z,6.20
2023-03-22T12:29:09.280Z,7.70
2023-03-22T12:44:09.306Z,6.60
2023-03-22T12:59:09.430Z,7.30
2023-03-22T13:15:09.327Z,10.90
2023-03-22T13:30:09.358Z,10.80
2023-03-22T13:45:09.377Z,9.40
2023-03-22T14:00:12.263Z,9.60
2023-03-22T14:15:09.399Z,11.00
2023-03-22T15:00:09.435Z,9.30
2023-03-22T15:15:09.458Z,9.00
2023-03-22T15:30:09.486Z,7.70
2023-03-22T15:45:09.631Z,7.40
2023-03-22T16:00:09.656Z,6.80
2023-03-22T16:15:09.548Z,6.20
2023-03-22T16:30:09.562Z,5.90
2023-03-22T16:45:09.586Z,5.80
2023-03-22T16:59:09.600Z,5.60
2023-03-22T17:15:09.606Z,6.00
2023-03-22T17:31:09.641Z,5.90
2023-03-22T17:46:33.098Z,5.80
2023-03-22T18:01:09.699Z,6.10
2023-03-22T18:15:09.639Z,6.70
2023-03-22T18:29:09.687Z,5.80
2023-03-22T18:43:09.683Z,5.30
2023-03-22T18:57:10.762Z,5.40
2023-03-22T19:11:09.705Z,4.80
2023-03-22T19:25:09.710Z,4.60
2023-03-22T19:39:12.265Z,4.80
2023-03-22T19:53:31.562Z,5.25
2023-03-22T20:08:10.404Z,7.60
2023-03-22T20:22:09.785Z,7.20
2023-03-22T20:36:09.804Z,7.50
2023-03-22T20:50:09.784Z,7.30
2023-03-22T21:04:09.847Z,7.00
2023-03-22T21:18:09.873Z,7.30
2023-03-22T21:32:09.834Z,7.20
2023-03-22T21:46:09.877Z,6.90
2023-03-22T22:00:09.890Z,6.70
2023-03-22T22:14:09.888Z,6.50
2023-03-22T22:28:09.908Z,6.20
2023-03-22T22:42:09.913Z,6.20
2023-03-22T22:56:09.936Z,6.10
2023-03-22T23:10:09.933Z,6.00
2023-03-22T23:24:09.953Z,5.80
2023-03-22T23:38:09.960Z,5.60
2023-03-22T23:52:09.969Z,5.70
